Time;durP1;ratioP1;P1;durP2;ratioP2;P2;SDS_P1;SDS_P2;PMS_P1;PMS_P2;Temp;Humidity;BMP_temperature;BMP_pressure;BME280_temperature;BME280_humidity;BME280_pressure;Samples;Min_cycle;Max_cycle;Signal;HPM_P1;HPM_P2
2023/11/14 00:01:25;;;;;;;34.45;4.70;;;8.10;100.00;;;;;;4956690;28;20804;-79
2023/11/14 00:03:52;;;;;;;33.70;4.50;;;8.10;100.00;;;;;;4958159;28;20043;-79
2023/11/14 00:06:19;;;;;;;31.40;4.68;;;8.10;100.00;;;;;;4966654;28;20113;-79
2023/11/14 00:08:46;;;;;;;29.95;4.13;;;8.10;100.00;;;;;;4963763;28;20107;-79
2023/11/14 00:11:13;;;;;;;36.78;4.75;;;8.10;100.00;;;;;;4969767;28;20054;-79
2023/11/14 00:13:40;;;;;;;23.40;3.40;;;8.00;100.00;;;;;;4962750;28;20570;-79
2023/11/14 00:16:07;;;;;;;27.90;3.72;;;8.00;100.00;;;;;;4968459;28;20055;-79
2023/11/14 00:18:34;;;;;;;35.60;4.50;;;8.00;100.00;;;;;;4966503;28;20471;-79
2023/11/14 00:21:01;;;;;;;28.35;3.60;;;8.10;100.00;;;;;;4967394;28;20043;-79
2023/11/14 00:23:27;;;;;;;16.52;3.58;;;8.10;100.00;;;;;;4958609;28;20043;-79
2023/11/14 00:25:54;;;;;;;33.55;3.50;;;8.00;100.00;;;;;;4964282;28;20875;-80
2023/11/14 00:28:21;;;;;;;28.30;3.83;;;8.10;100.00;;;;;;4955740;28;20047;-79
2023/11/14 00:30:48;;;;;;;28.13;3.63;;;8.10;100.00;;;;;;4962323;28;20055;-79
2023/11/14 00:33:15;;;;;;;21.45;3.58;;;8.10;100.00;;;;;;4960357;28;20055;-79
2023/11/14 00:35:43;;;;;;;26.02;3.28;;;8.10;100.00;;;;;;4967148;28;20607;-80
2023/11/14 00:38:10;;;;;;;24.70;4.15;;;8.10;100.00;;;;;;4951675;28;20142;-80
2023/11/14 00:40:39;;;;;;;23.75;3.00;;;8.10;100.00;;;;;;4963793;28;20491;-79
2023/11/14 00:43:06;;;;;;;17.17;2.53;;;8.10;100.00;;;;;;4959683;28;20051;-79
2023/11/14 00:45:33;;;;;;;25.95;3.83;;;8.10;100.00;;;;;;4965686;28;20047;-79
2023/11/14 00:47:59;;;;;;;17.70;3.70;;;8.20;100.00;;;;;;4967576;28;20047;-79
2023/11/14 00:50:27;;;;;;;24.60;3.58;;;8.20;100.00;;;;;;4966258;28;20781;-79
2023/11/14 00:52:54;;;;;;;21.58;3.22;;;8.20;100.00;;;;;;4959136;28;20528;-79
2023/11/14 00:55:21;;;;;;;32.88;3.92;;;8.30;100.00;;;;;;4977486;28;20050;-79
2023/11/14 00:57:47;;;;;;;31.55;4.15;;;8.40;100.00;;;;;;4971410;28;20102;-79
2023/11/14 01:00:15;;;;;;;22.20;3.55;;;8.30;100.00;;;;;;4968609;28;20047;-79
2023/11/14 01:02:42;;;;;;;18.02;2.78;;;8.30;100.00;;;;;;4959381;28;20043;-79
2023/11/14 01:05:09;;;;;;;25.75;3.22;;;8.30;100.00;;;;;;4968008;28;20066;-79
2023/11/14 01:07:36;;;;;;;22.10;2.97;;;8.30;100.00;;;;;;4969690;28;20099;-79
2023/11/14 01:10:04;;;;;;;21.13;2.92;;;8.30;100.00;;;;;;4964893;28;20057;-79
2023/11/14 01:12:34;;;;;;;24.42;4.05;;;8.40;100.00;;;;;;4964135;28;20407;-79
2023/11/14 01:15:01;;;;;;;29.60;3.80;;;8.40;100.00;;;;;;4965772;28;20057;-80
2023/11/14 01:17:28;;;;;;;36.45;4.63;;;8.40;100.00;;;;;;4964278;28;20184;-78
2023/11/14 01:19:55;;;;;;;30.88;4.95;;;8.40;100.00;;;;;;4954566;28;20480;-79
2023/11/14 01:22:22;;;;;;;21.55;3.78;;;8.40;100.00;;;;;;4965219;28;20058;-79
2023/11/14 01:24:49;;;;;;;17.30;3.03;;;8.40;100.00;;;;;;4961068;28;20047;-79
2023/11/14 01:27:16;;;;;;;27.52;3.10;;;8.40;100.00;;;;;;4961521;28;20043;-79
2023/11/14 01:29:46;;;;;;;41.00;4.15;;;8.50;100.00;;;;;;4957922;28;20508;-78
2023/11/14 01:32:13;;;;;;;21.63;3.45;;;8.40;100.00;;;;;;4961595;28;20121;-79
2023/11/14 01:34:40;;;;;;;40.67;4.53;;;8.40;100.00;;;;;;4963959;28;20126;-79
2023/11/14 01:37:07;;;;;;;28.55;4.10;;;8.40;100.00;;;;;;4958522;28;20055;-79
2023/11/14 01:39:34;;;;;;;30.58;3.83;;;8.30;100.00;;;;;;4963568;28;20050;-78
2023/11/14 01:42:01;;;;;;;39.45;4.72;;;8.30;100.00;;;;;;4971327;28;20581;-79
2023/11/14 01:44:30;;;;;;;42.72;4.53;;;8.20;100.00;;;;;;4964707;28;20047;-79
2023/11/14 01:46:57;;;;;;;25.85;3.97;;;8.20;100.00;;;;;;4961688;28;20050;-78
2023/11/14 01:49:24;;;;;;;43.63;6.18;;;8.20;100.00;;;;;;4971417;28;20043;-79
2023/11/14 01:51:52;;;;;;;41.03;4.47;;;8.10;100.00;;;;;;4969226;28;20074;-79
2023/11/14 01:54:19;;;;;;;30.55;4.63;;;8.10;100.00;;;;;;4957551;28;20086;-79
2023/11/14 01:56:46;;;;;;;32.22;4.05;;;8.10;100.00;;;;;;4966067;28;20436;-79
2023/11/14 01:59:13;;;;;;;25.38;4.20;;;8.10;100.00;;;;;;4966937;28;20516;-79
2023/11/14 02:01:41;;;;;;;46.00;4.60;;;8.10;100.00;;;;;;4964720;28;20129;-78
2023/11/14 02:04:12;;;;;;;40.33;4.28;;;8.10;100.00;;;;;;4966106;28;20051;-78
2023/11/14 02:06:39;;;;;;;37.05;4.70;;;8.10;100.00;;;;;;4957330;28;20062;-78
2023/11/14 02:09:09;;;;;;;42.42;5.40;;;8.10;100.00;;;;;;4955188;28;20055;-78
2023/11/14 02:11:36;;;;;;;35.33;4.68;;;8.10;100.00;;;;;;4963944;28;20059;-79
2023/11/14 02:14:04;;;;;;;47.08;5.10;;;8.20;100.00;;;;;;4967311;28;20134;-79
2023/11/14 02:16:48;;;;;;;52.00;5.28;;;8.30;100.00;;;;;;4966538;28;20133;-79
2023/11/14 02:19:16;;;;;;;43.47;4.30;;;8.30;100.00;;;;;;4960758;28;20062;-79
2023/11/14 02:21:43;;;;;;;55.30;6.22;;;8.30;100.00;;;;;;4955404;28;20055;-78
2023/11/14 02:24:18;;;;;;;39.00;4.45;;;8.40;100.00;;;;;;4967852;28;20046;-79
2023/11/14 02:26:50;;;;;;;32.95;3.72;;;8.40;100.00;;;;;;4954902;28;20646;-80
2023/11/14 02:29:21;;;;;;;34.10;3.90;;;8.40;100.00;;;;;;4958867;28;20083;-79
2023/11/14 02:31:49;;;;;;;53.63;4.78;;;8.40;100.00;;;;;;4965754;28;20677;-79
2023/11/14 02:34:16;;;;;;;32.55;4.68;;;8.50;100.00;;;;;;4970274;28;20055;-79
2023/11/14 02:36:43;;;;;;;39.55;5.28;;;8.50;100.00;;;;;;4967250;28;20813;-79
2023/11/14 02:39:10;;;;;;;29.10;4.45;;;8.50;100.00;;;;;;4956056;28;20110;-78
2023/11/14 02:41:38;;;;;;;33.63;4.15;;;8.50;100.00;;;;;;4955468;28;20078;-79
2023/11/14 02:44:05;;;;;;;39.40;5.25;;;8.50;100.00;;;;;;4962141;28;20055;-80
2023/11/14 02:46:32;;;;;;;44.20;5.28;;;8.50;100.00;;;;;;4964813;28;20186;-79
2023/11/14 02:49:45;;;;;;;39.65;4.35;;;8.60;100.00;;;;;;4969030;28;20081;-80
2023/11/14 02:52:12;;;;;;;26.15;4.25;;;8.60;100.00;;;;;;4950144;28;20051;-80
2023/11/14 02:54:39;;;;;;;39.38;3.80;;;8.70;100.00;;;;;;4962024;28;20137;-80
2023/11/14 02:57:07;;;;;;;37.50;4.25;;;8.70;100.00;;;;;;4975505;28;20043;-80
2023/11/14 02:59:34;;;;;;;39.40;4.32;;;8.70;100.00;;;;;;4964308;28;20050;-80
2023/11/14 03:02:01;;;;;;;38.28;4.90;;;8.80;100.00;;;;;;4963359;28;20106;-79
2023/11/14 03:04:28;;;;;;;35.05;3.83;;;8.80;100.00;;;;;;4965289;28;20783;-79
2023/11/14 03:06:55;;;;;;;41.97;4.15;;;8.80;100.00;;;;;;4959346;28;20043;-79
2023/11/14 03:09:22;;;;;;;33.33;4.75;;;8.90;100.00;;;;;;4964631;28;20523;-79
2023/11/14 03:11:49;;;;;;;26.15;3.97;;;8.90;100.00;;;;;;4958290;28;20063;-79
2023/11/14 03:14:16;;;;;;;46.72;6.20;;;9.00;100.00;;;;;;4958036;28;20051;-80
2023/11/14 03:16:43;;;;;;;32.75;5.25;;;9.00;100.00;;;;;;4955390;28;20058;-80
2023/11/14 03:19:10;;;;;;;27.25;3.47;;;9.00;100.00;;;;;;4955271;28;20051;-80
2023/11/14 03:21:42;;;;;;;33.35;3.90;;;9.00;100.00;;;;;;4959087;28;20055;-80
2023/11/14 03:24:11;;;;;;;36.55;4.43;;;9.00;100.00;;;;;;4966400;28;20524;-79
2023/11/14 03:26:38;;;;;;;37.83;4.03;;;9.00;100.00;;;;;;4960518;28;20053;-79
2023/11/14 03:29:05;;;;;;;31.90;4.20;;;8.90;100.00;;;;;;4962920;28;20061;-79
2023/11/14 03:31:32;;;;;;;31.02;4.28;;;8.90;100.00;;;;;;4959523;28;20046;-79
2023/11/14 03:33:59;;;;;;;38.88;4.75;;;8.90;100.00;;;;;;4954881;28;20051;-79
2023/11/14 03:36:26;;;;;;;27.05;4.78;;;9.00;100.00;;;;;;4958148;28;20121;-79
2023/11/14 03:38:53;;;;;;;23.15;3.42;;;8.90;100.00;;;;;;4952438;28;20039;-79
2023/11/14 03:41:20;;;;;;;30.55;3.25;;;8.90;100.00;;;;;;4961566;28;20051;-79
2023/11/14 03:43:46;;;;;;;28.80;4.45;;;9.00;100.00;;;;;;4951042;28;20051;-79
2023/11/14 03:46:13;;;;;;;41.75;4.28;;;9.00;100.00;;;;;;4960848;28;20055;-79
2023/11/14 03:48:41;;;;;;;29.60;3.67;;;9.00;100.00;;;;;;4963834;28;20050;-79
2023/11/14 03:51:10;;;;;;;22.63;3.33;;;9.00;100.00;;;;;;4956302;28;20652;-78
2023/11/14 03:53:38;;;;;;;26.73;4.50;;;9.10;100.00;;;;;;4965490;28;20058;-79
2023/11/14 03:56:06;;;;;;;23.67;3.58;;;9.10;100.00;;;;;;4956094;28;20471;-80
2023/11/14 03:58:39;;;;;;;39.78;4.75;;;9.10;100.00;;;;;;4954443;28;20361;-79
2023/11/14 04:01:06;;;;;;;29.65;4.50;;;9.10;100.00;;;;;;4951626;28;20055;-79
2023/11/14 04:03:33;;;;;;;30.88;4.30;;;9.10;100.00;;;;;;4956686;28;20043;-79
2023/11/14 04:06:00;;;;;;;34.40;4.47;;;9.10;100.00;;;;;;4959490;28;20110;-79
2023/11/14 04:08:28;;;;;;;21.45;3.67;;;9.10;100.00;;;;;;4963747;28;20050;-79
2023/11/14 04:10:55;;;;;;;38.35;3.80;;;9.10;100.00;;;;;;4957701;28;20385;-79
2023/11/14 04:13:22;;;;;;;34.50;4.45;;;9.20;100.00;;;;;;4963266;28;20680;-80
2023/11/14 04:15:49;;;;;;;39.47;3.67;;;9.20;100.00;;;;;;4965902;28;20554;-79
2023/11/14 04:18:16;;;;;;;24.88;4.05;;;9.20;100.00;;;;;;4967948;28;20109;-80
2023/11/14 04:20:43;;;;;;;33.92;3.58;;;9.30;100.00;;;;;;4957698;28;20130;-80
2023/11/14 04:23:10;;;;;;;23.83;3.72;;;9.20;100.00;;;;;;4954762;28;20776;-80
2023/11/14 04:25:37;;;;;;;28.13;4.20;;;9.20;100.00;;;;;;4958921;28;20051;-79
2023/11/14 04:28:04;;;;;;;39.67;5.80;;;9.20;100.00;;;;;;4958943;28;20476;-80
2023/11/14 04:30:31;;;;;;;48.70;4.30;;;9.30;100.00;;;;;;4960623;28;20105;-80
2023/11/14 04:32:58;;;;;;;33.35;4.57;;;9.30;100.00;;;;;;4961505;28;20055;-79
2023/11/14 04:35:25;;;;;;;33.42;4.68;;;9.30;100.00;;;;;;4964734;28;20043;-79
2023/11/14 04:37:55;;;;;;;27.95;3.65;;;9.30;100.00;;;;;;4956795;28;20109;-79
2023/11/14 04:40:23;;;;;;;31.42;3.97;;;9.40;100.00;;;;;;4963607;28;20118;-79
2023/11/14 04:42:51;;;;;;;28.65;3.88;;;9.40;100.00;;;;;;4966267;28;20058;-79
2023/11/14 04:45:17;;;;;;;33.78;3.63;;;9.50;100.00;;;;;;4965410;28;20114;-80
2023/11/14 04:47:45;;;;;;;19.20;3.65;;;9.50;100.00;;;;;;4962915;28;20062;-79
2023/11/14 04:50:12;;;;;;;35.55;3.63;;;9.50;100.00;;;;;;4969371;28;20628;-80
2023/11/14 04:52:39;;;;;;;31.65;3.08;;;9.50;100.00;;;;;;4962144;28;20059;-80
2023/11/14 04:55:06;;;;;;;27.50;3.35;;;9.40;100.00;;;;;;4962605;28;20050;-78
2023/11/14 04:57:33;;;;;;;34.25;3.88;;;9.30;100.00;;;;;;4971833;28;20051;-80
2023/11/14 05:00:00;;;;;;;25.05;3.25;;;9.20;100.00;;;;;;4958211;28;20058;-78
2023/11/14 05:02:28;;;;;;;27.75;4.15;;;9.10;100.00;;;;;;4969487;28;20062;-79
2023/11/14 05:04:55;;;;;;;32.60;3.30;;;9.10;100.00;;;;;;4955012;28;20043;-78
2023/11/14 05:07:22;;;;;;;26.83;3.85;;;9.10;100.00;;;;;;4961160;28;20055;-78
2023/11/14 05:09:49;;;;;;;29.35;4.40;;;9.10;100.00;;;;;;4963478;28;20101;-78
2023/11/14 05:12:16;;;;;;;24.52;3.75;;;9.00;100.00;;;;;;4959847;28;20063;-78
2023/11/14 05:14:45;;;;;;;33.30;3.58;;;9.00;100.00;;;;;;4960912;28;20139;-78
2023/11/14 05:17:12;;;;;;;21.38;2.75;;;9.00;100.00;;;;;;4962873;28;20058;-78
2023/11/14 05:19:42;;;;;;;29.30;4.72;;;9.00;100.00;;;;;;4961290;28;20057;-78
2023/11/14 05:22:12;;;;;;;26.60;3.55;;;9.00;100.00;;;;;;4970245;28;20047;-78
2023/11/14 05:24:39;;;;;;;31.75;3.85;;;9.00;100.00;;;;;;4965111;28;20059;-79
2023/11/14 05:27:06;;;;;;;34.90;3.70;;;9.00;100.00;;;;;;4967864;28;20054;-78
2023/11/14 05:29:33;;;;;;;23.73;3.10;;;8.90;100.00;;;;;;4957574;28;20051;-78
2023/11/14 05:32:03;;;;;;;38.75;4.50;;;8.90;100.00;;;;;;4963555;28;20115;-78
2023/11/14 05:34:30;;;;;;;24.00;3.45;;;9.00;100.00;;;;;;4962595;28;20102;-78
2023/11/14 05:36:57;;;;;;;15.23;2.70;;;9.00;100.00;;;;;;4966716;28;20046;-78
2023/11/14 05:39:24;;;;;;;28.48;3.85;;;9.00;100.00;;;;;;4961601;28;20062;-78
2023/11/14 05:41:51;;;;;;;17.40;3.58;;;9.00;100.00;;;;;;4961914;28;20039;-78
2023/11/14 05:44:18;;;;;;;26.48;3.80;;;9.00;100.00;;;;;;4960292;28;20113;-78
2023/11/14 05:46:45;;;;;;;25.15;3.05;;;9.00;100.00;;;;;;4966482;28;20050;-79
2023/11/14 05:49:12;;;;;;;28.65;3.53;;;9.10;100.00;;;;;;4958806;28;20054;-77
2023/11/14 05:51:40;;;;;;;16.38;3.08;;;9.10;100.00;;;;;;4963162;28;20059;-79
2023/11/14 05:54:07;;;;;;;38.97;3.42;;;9.10;100.00;;;;;;4967281;28;20047;-79
2023/11/14 05:56:34;;;;;;;23.65;3.65;;;9.10;100.00;;;;;;4962628;28;20739;-79
2023/11/14 05:59:03;;;;;;;18.60;2.90;;;9.10;100.00;;;;;;4963491;28;20054;-80
2023/11/14 06:01:30;;;;;;;22.05;3.17;;;9.10;100.00;;;;;;4961610;28;20050;-80
2023/11/14 06:03:57;;;;;;;25.63;2.95;;;9.10;100.00;;;;;;4963101;28;20097;-77
2023/11/14 06:06:24;;;;;;;25.98;2.95;;;9.10;100.00;;;;;;4961821;28;20047;-77
2023/11/14 06:08:51;;;;;;;25.45;3.30;;;9.10;100.00;;;;;;4965043;28;20046;-78
2023/11/14 06:11:18;;;;;;;30.00;3.03;;;9.10;100.00;;;;;;4964111;28;20055;-78
2023/11/14 06:13:46;;;;;;;32.92;4.07;;;9.00;100.00;;;;;;4957346;28;20051;-81
2023/11/14 06:16:15;;;;;;;18.52;3.65;;;9.00;100.00;;;;;;4973412;28;20861;-82
2023/11/14 06:18:43;;;;;;;35.25;3.38;;;9.10;100.00;;;;;;4968087;28;20389;-79
2023/11/14 06:21:10;;;;;;;28.35;3.83;;;9.10;100.00;;;;;;4968081;28;20043;-77
2023/11/14 06:23:37;;;;;;;27.08;3.05;;;9.00;100.00;;;;;;4958354;28;20427;-77
2023/11/14 06:26:05;;;;;;;13.90;2.97;;;9.10;100.00;;;;;;4964662;28;20129;-77
2023/11/14 06:28:32;;;;;;;22.17;2.90;;;9.00;100.00;;;;;;4966366;28;20074;-80
2023/11/14 06:30:59;;;;;;;29.13;3.70;;;9.10;100.00;;;;;;4958535;28;20051;-75
2023/11/14 06:33:31;;;;;;;17.77;3.20;;;9.10;100.00;;;;;;4962045;28;20051;-77
2023/11/14 06:35:59;;;;;;;32.92;3.65;;;9.10;100.00;;;;;;4963605;28;20050;-78
2023/11/14 06:38:26;;;;;;;15.82;3.33;;;9.00;100.00;;;;;;4951794;28;20047;-76
2023/11/14 06:40:55;;;;;;;19.42;3.65;;;9.00;100.00;;;;;;4964889;28;20565;-78
2023/11/14 06:43:22;;;;;;;31.05;4.20;;;9.00;100.00;;;;;;4958702;28;20061;-78
2023/11/14 06:45:49;;;;;;;24.23;3.08;;;9.00;100.00;;;;;;4957713;28;20055;-78
2023/11/14 06:48:17;;;;;;;18.67;3.35;;;9.00;100.00;;;;;;4957432;28;20467;-78
2023/11/14 06:50:44;;;;;;;27.27;3.15;;;9.00;100.00;;;;;;4962675;28;20436;-78
2023/11/14 06:53:11;;;;;;;28.85;4.00;;;9.00;100.00;;;;;;4962755;28;20539;-79
2023/11/14 06:55:40;;;;;;;22.67;2.63;;;9.00;100.00;;;;;;4968151;28;20472;-78
2023/11/14 06:58:07;;;;;;;25.27;3.10;;;9.00;100.00;;;;;;4962828;28;20051;-78
2023/11/14 07:00:35;;;;;;;26.95;3.65;;;9.00;100.00;;;;;;4951301;28;20055;-78
2023/11/14 07:03:03;;;;;;;28.02;3.65;;;9.10;100.00;;;;;;4952755;28;21186;-78
2023/11/14 07:05:30;;;;;;;34.58;3.88;;;9.10;100.00;;;;;;4960567;28;20452;-78
2023/11/14 07:07:58;;;;;;;19.27;2.50;;;9.10;100.00;;;;;;4966409;28;20059;-78
2023/11/14 07:10:24;;;;;;;26.85;3.25;;;9.10;100.00;;;;;;4969163;28;20137;-78
2023/11/14 07:12:52;;;;;;;12.18;3.00;;;9.10;100.00;;;;;;4958011;28;20102;-77
2023/11/14 07:15:20;;;;;;;16.25;3.08;;;9.10;100.00;;;;;;4964068;28;20046;-78
2023/11/14 07:17:49;;;;;;;31.55;2.92;;;9.10;100.00;;;;;;4955369;28;20141;-77
2023/11/14 07:20:20;;;;;;;27.48;3.05;;;9.10;100.00;;;;;;4957129;28;20764;-77
2023/11/14 07:22:48;;;;;;;23.13;2.72;;;9.10;100.00;;;;;;4965152;28;20050;-78
2023/11/14 07:25:16;;;;;;;18.05;2.90;;;9.10;100.00;;;;;;4965558;28;20086;-77
2023/11/14 07:27:46;;;;;;;20.30;2.42;;;9.20;100.00;;;;;;4960628;28;20645;-77
2023/11/14 07:30:13;;;;;;;22.35;2.80;;;9.20;100.00;;;;;;4966266;28;20044;-77
2023/11/14 07:32:40;;;;;;;30.63;4.90;;;9.20;100.00;;;;;;4961881;28;20061;-77
2023/11/14 07:35:10;;;;;;;23.13;2.60;;;9.20;100.00;;;;;;4959654;28;20449;-77
2023/11/14 07:37:37;;;;;;;20.92;2.70;;;9.20;100.00;;;;;;4952842;28;20110;-77
2023/11/14 07:40:06;;;;;;;13.85;2.53;;;9.20;100.00;;;;;;4962107;28;20129;-77
2023/11/14 07:42:33;;;;;;;17.73;3.00;;;9.30;100.00;;;;;;4967660;28;20126;-77
2023/11/14 07:45:00;;;;;;;15.70;2.78;;;9.30;100.00;;;;;;4963385;28;20082;-77
2023/11/14 07:47:28;;;;;;;14.25;2.35;;;9.30;100.00;;;;;;4963209;28;20047;-77
2023/11/14 07:49:56;;;;;;;13.52;2.13;;;9.40;100.00;;;;;;4964859;28;20069;-77
2023/11/14 07:52:22;;;;;;;16.20;2.22;;;9.40;100.00;;;;;;4958808;28;20129;-76
2023/11/14 07:54:53;;;;;;;21.00;2.38;;;9.40;100.00;;;;;;4961214;28;20046;-77
2023/11/14 07:57:19;;;;;;;10.57;1.60;;;9.50;100.00;;;;;;4952244;28;20051;-76
2023/11/14 07:59:46;;;;;;;12.68;2.00;;;9.40;100.00;;;;;;4948959;28;20074;-76
2023/11/14 08:02:13;;;;;;;22.45;2.00;;;9.40;100.00;;;;;;4963570;28;20090;-77
2023/11/14 08:04:40;;;;;;;17.25;1.67;;;9.50;100.00;;;;;;4956522;28;20928;-77
2023/11/14 08:07:09;;;;;;;11.43;1.75;;;9.50;100.00;;;;;;4951018;28;20054;-77
2023/11/14 08:09:36;;;;;;;12.10;1.52;;;9.50;100.00;;;;;;4961041;28;20154;-77
2023/11/14 08:12:03;;;;;;;18.58;1.77;;;9.60;100.00;;;;;;4958688;28;21071;-77
2023/11/14 08:14:30;;;;;;;4.70;1.42;;;9.60;100.00;;;;;;4962806;28;20140;-77
2023/11/14 08:16:57;;;;;;;13.30;2.40;;;9.60;100.00;;;;;;4964418;28;20134;-77
2023/11/14 08:19:24;;;;;;;12.27;1.45;;;9.70;100.00;;;;;;4955375;28;20043;-77
2023/11/14 08:21:52;;;;;;;11.52;1.48;;;9.80;100.00;;;;;;4957832;28;20483;-77
2023/11/14 08:24:19;;;;;;;9.02;1.52;;;9.80;100.00;;;;;;4961003;28;20062;-77
2023/11/14 08:26:46;;;;;;;9.05;1.75;;;9.90;100.00;;;;;;4947396;28;20082;-77
2023/11/14 08:29:13;;;;;;;16.25;1.63;;;9.90;100.00;;;;;;4955777;28;20459;-77
2023/11/14 08:31:42;;;;;;;9.45;1.60;;;9.90;100.00;;;;;;4958336;28;20085;-76
2023/11/14 08:34:09;;;;;;;13.88;1.70;;;9.90;100.00;;;;;;4957886;28;20051;-76
2023/11/14 08:36:36;;;;;;;8.93;1.63;;;9.90;100.00;;;;;;4960346;28;20075;-77
2023/11/14 08:39:02;;;;;;;12.50;1.73;;;9.90;100.00;;;;;;4954423;28;20484;-76
2023/11/14 08:41:29;;;;;;;12.63;1.40;;;9.90;100.00;;;;;;4959034;28;20082;-76
2023/11/14 08:43:57;;;;;;;7.63;1.40;;;9.80;100.00;;;;;;4953699;28;20047;-76
2023/11/14 08:46:25;;;;;;;7.57;1.55;;;9.70;100.00;;;;;;4964393;28;20051;-77
2023/11/14 08:48:52;;;;;;;7.63;1.65;;;9.70;100.00;;;;;;4955342;28;20499;-77
2023/11/14 08:51:20;;;;;;;10.68;2.13;;;9.60;100.00;;;;;;4955631;28;20079;-77
2023/11/14 08:53:47;;;;;;;13.57;2.55;;;9.60;100.00;;;;;;4960671;28;20074;-77
2023/11/14 08:56:14;;;;;;;7.88;1.55;;;9.60;100.00;;;;;;4956100;28;20058;-77
2023/11/14 08:58:41;;;;;;;8.18;1.67;;;9.60;100.00;;;;;;4954858;28;20411;-77
2023/11/14 09:01:11;;;;;;;10.38;1.70;;;9.60;100.00;;;;;;4958194;28;20051;-77
2023/11/14 09:03:38;;;;;;;10.02;1.25;;;9.60;100.00;;;;;;4958704;28;20121;-78
2023/11/14 09:06:06;;;;;;;16.15;1.98;;;9.60;100.00;;;;;;4962073;28;20042;-77
2023/11/14 09:08:34;;;;;;;10.07;1.83;;;9.50;100.00;;;;;;4967837;28;20646;-78
2023/11/14 09:11:01;;;;;;;6.78;1.90;;;9.50;100.00;;;;;;4967867;28;20047;-77
2023/11/14 09:13:28;;;;;;;13.48;1.95;;;9.60;100.00;;;;;;4961323;28;20054;-78
2023/11/14 09:15:55;;;;;;;9.30;1.92;;;9.60;100.00;;;;;;4960055;28;20903;-77
2023/11/14 09:18:23;;;;;;;8.02;1.73;;;9.60;100.00;;;;;;4970962;28;20058;-78
2023/11/14 09:20:50;;;;;;;8.85;2.30;;;9.60;100.00;;;;;;4952001;28;20051;-77
2023/11/14 09:23:17;;;;;;;10.70;2.00;;;9.70;100.00;;;;;;4958927;28;20120;-77
2023/11/14 09:25:44;;;;;;;11.20;2.13;;;9.70;100.00;;;;;;4958786;28;20750;-78
2023/11/14 09:28:11;;;;;;;12.82;2.17;;;9.90;100.00;;;;;;4960192;28;20051;-78
2023/11/14 09:30:38;;;;;;;16.98;1.45;;;10.00;100.00;;;;;;4966046;28;20876;-78
2023/11/14 09:33:07;;;;;;;13.75;2.38;;;10.10;100.00;;;;;;4968418;28;20046;-78
2023/11/14 09:35:34;;;;;;;14.25;3.22;;;10.10;100.00;;;;;;4960349;28;20142;-77
2023/11/14 09:38:01;;;;;;;17.30;2.42;;;10.10;100.00;;;;;;4961515;28;20051;-79
2023/11/14 09:40:28;;;;;;;10.18;1.80;;;10.10;100.00;;;;;;4957198;28;20063;-78
2023/11/14 09:42:55;;;;;;;6.70;1.52;;;10.10;100.00;;;;;;4970732;28;20171;-78
2023/11/14 09:45:24;;;;;;;8.57;1.63;;;10.10;100.00;;;;;;4965141;28;20117;-79
2023/11/14 09:47:51;;;;;;;7.40;1.42;;;10.00;100.00;;;;;;4960265;28;20082;-79
2023/11/14 09:50:19;;;;;;;10.50;1.67;;;10.00;100.00;;;;;;4960588;28;20055;-79
2023/11/14 09:52:46;;;;;;;10.48;1.25;;;9.90;100.00;;;;;;4960686;28;20133;-78
2023/11/14 09:55:14;;;;;;;11.57;1.35;;;9.90;100.00;;;;;;4956672;28;20055;-73
2023/11/14 09:57:45;;;;;;;7.13;1.52;;;9.90;100.00;;;;;;4963880;28;20054;-73
2023/11/14 10:00:15;;;;;;;12.00;1.30;;;10.00;100.00;;;;;;4958778;28;20053;-74
2023/11/14 10:02:42;;;;;;;6.63;0.90;;;10.10;100.00;;;;;;4966978;28;20051;-74
2023/11/14 10:05:10;;;;;;;8.50;1.15;;;10.10;100.00;;;;;;4966956;28;20047;-74
2023/11/14 10:07:43;;;;;;;7.63;1.25;;;10.20;100.00;;;;;;4972897;28;20061;-79
2023/11/14 10:10:11;;;;;;;10.07;1.35;;;10.10;100.00;;;;;;4974744;28;20101;-82
2023/11/14 10:12:39;;;;;;;10.95;1.23;;;10.10;100.00;;;;;;4965388;28;20129;-81
2023/11/14 10:15:07;;;;;;;11.50;1.42;;;10.20;100.00;;;;;;4960297;28;20062;-80
2023/11/14 10:17:42;;;;;;;9.65;1.20;;;10.20;100.00;;;;;;4956969;28;20155;-81
2023/11/14 10:20:10;;;;;;;;;;;10.30;100.00;;;;;;4971415;28;20078;-81
2023/11/14 10:22:49;;;;;;;5.22;1.23;;;10.50;100.00;;;;;;4968416;28;19926;-80
2023/11/14 10:25:27;;;;;;;9.15;1.52;;;10.50;100.00;;;;;;4975301;28;20050;-81
2023/11/14 10:28:05;;;;;;;7.78;1.20;;;10.60;100.00;;;;;;4962293;28;20731;-81
2023/11/14 10:30:45;;;;;;;11.85;1.90;;;10.80;100.00;;;;;;4970145;28;20650;-82
2023/11/14 10:33:13;;;;;;;5.88;1.30;;;11.10;100.00;;;;;;4957155;28;20059;-82
2023/11/14 10:35:41;;;;;;;4.45;1.20;;;11.20;100.00;;;;;;4963645;28;20066;-82
2023/11/14 10:38:14;;;;;;;9.48;1.30;;;11.30;100.00;;;;;;4957242;28;20535;-82
2023/11/14 10:40:45;;;;;;;7.53;1.33;;;11.30;100.00;;;;;;4963060;28;20508;-82
2023/11/14 10:43:13;;;;;;;11.18;1.33;;;11.20;100.00;;;;;;4962663;28;20069;-81
2023/11/14 10:45:40;;;;;;;10.05;1.30;;;11.20;100.00;;;;;;4958771;28;20117;-81
2023/11/14 10:48:07;;;;;;;6.88;1.20;;;11.20;100.00;;;;;;4970698;28;20047;-82
2023/11/14 10:50:34;;;;;;;11.10;1.50;;;11.10;100.00;;;;;;4970231;28;20065;-82
2023/11/14 10:53:02;;;;;;;12.50;1.30;;;11.00;100.00;;;;;;4969817;28;20055;-82
2023/11/14 10:55:29;;;;;;;15.82;1.65;;;10.90;100.00;;;;;;4963264;28;20051;-81
2023/11/14 10:57:56;;;;;;;5.60;1.02;;;10.80;100.00;;;;;;4958852;28;20098;-81
2023/11/14 11:00:24;;;;;;;7.47;1.00;;;10.70;100.00;;;;;;4969160;28;20503;-82
2023/11/14 11:02:52;;;;;;;11.95;1.27;;;10.70;100.00;;;;;;4968722;28;20640;-81
2023/11/14 11:05:21;;;;;;;16.17;1.48;;;10.90;100.00;;;;;;4967571;28;20511;-82
2023/11/14 11:08:08;;;;;;;9.65;2.42;;;10.90;100.00;;;;;;4957373;28;20058;-81
2023/11/14 11:10:38;;;;;;;15.60;1.75;;;10.90;100.00;;;;;;4964403;28;20043;-82
2023/11/14 11:13:26;;;;;;;18.13;1.55;;;10.90;100.00;;;;;;4956086;28;20062;-81
2023/11/14 11:15:55;;;;;;;14.18;2.03;;;10.90;100.00;;;;;;4959785;28;20110;-82
2023/11/14 11:18:42;;;;;;;14.45;2.05;;;11.10;100.00;;;;;;4962390;28;20081;-81
2023/11/14 11:21:11;;;;;;;9.40;1.98;;;11.70;100.00;;;;;;4966247;28;20101;-82
2023/11/14 11:24:12;;;;;;;19.23;2.55;;;11.90;100.00;;;;;;4957999;28;20926;-83
2023/11/14 11:27:18;;;;;;;21.75;2.63;;;11.70;100.00;;;;;;4966793;28;20411;-81
2023/11/14 11:29:50;;;;;;;16.05;2.22;;;12.00;100.00;;;;;;4962694;28;20043;-81
2023/11/14 11:32:27;;;;;;;14.30;2.33;;;11.90;100.00;;;;;;4962899;28;20045;-82
2023/11/14 11:35:20;;;;;;;14.30;2.67;;;11.80;100.00;;;;;;4963733;28;20046;-81
2023/11/14 11:38:09;;;;;;;14.32;2.28;;;11.50;100.00;;;;;;4957945;28;20407;-81
2023/11/14 11:40:57;;;;;;;13.35;1.83;;;11.50;100.00;;;;;;4954344;28;20843;-81
2023/11/14 11:43:25;;;;;;;17.20;2.55;;;11.30;100.00;;;;;;4940871;28;20129;-81
2023/11/14 11:45:52;;;;;;;15.95;2.20;;;11.30;100.00;;;;;;4957482;28;20452;-81
2023/11/14 11:48:26;;;;;;;17.25;2.75;;;11.30;100.00;;;;;;4964875;28;20464;-82
2023/11/14 11:50:54;;;;;;;24.67;3.03;;;11.30;100.00;;;;;;4955144;28;20047;-80
2023/11/14 11:53:40;;;;;;;21.85;2.22;;;11.40;100.00;;;;;;4951333;28;20106;-81
2023/11/14 11:56:11;;;;;;;14.95;1.65;;;11.40;100.00;;;;;;4962223;28;20054;-81
2023/11/14 11:58:48;;;;;;;17.83;2.15;;;11.40;100.00;;;;;;4956963;28;20069;-81
2023/11/14 12:01:15;;;;;;;10.98;2.10;;;11.40;100.00;;;;;;4964802;28;20047;-81
2023/11/14 12:03:42;;;;;;;14.63;2.15;;;11.60;100.00;;;;;;4958135;28;20093;-81
2023/11/14 12:06:12;;;;;;;12.57;2.03;;;11.80;100.00;;;;;;4954898;28;20098;-82
2023/11/14 12:08:39;;;;;;;6.20;1.55;;;12.00;100.00;;;;;;4958062;28;20058;-81
2023/11/14 12:11:14;;;;;;;10.18;1.95;;;12.10;100.00;;;;;;4959420;28;20106;-81
2023/11/14 12:13:45;;;;;;;9.60;1.88;;;12.10;100.00;;;;;;4970707;28;20050;-79
2023/11/14 12:16:13;;;;;;;11.88;2.00;;;12.00;100.00;;;;;;4962864;28;20079;-79
2023/11/14 12:18:41;;;;;;;12.35;2.22;;;12.00;100.00;;;;;;4965214;28;20057;-80
2023/11/14 12:21:08;;;;;;;20.88;2.08;;;11.90;100.00;;;;;;4961047;28;20113;-78
2023/11/14 12:23:35;;;;;;;13.32;2.63;;;11.80;100.00;;;;;;4971161;28;20587;-79
2023/11/14 12:26:02;;;;;;;14.50;1.98;;;11.70;100.00;;;;;;4959817;28;20110;-82
2023/11/14 12:28:39;;;;;;;21.75;2.58;;;11.70;100.00;;;;;;4963104;28;20054;-82
2023/11/14 12:31:12;;;;;;;15.10;2.30;;;11.60;100.00;;;;;;4956329;28;20050;-82
2023/11/14 12:33:44;;;;;;;20.98;2.60;;;11.50;100.00;;;;;;4966275;28;20081;-82
2023/11/14 12:36:24;;;;;;;15.25;2.33;;;11.30;100.00;;;;;;4962801;28;20050;-82
2023/11/14 12:38:54;;;;;;;19.50;2.50;;;11.10;100.00;;;;;;4969873;28;20667;-81
2023/11/14 12:41:27;;;;;;;15.77;2.30;;;11.00;100.00;;;;;;4959006;28;20134;-81
2023/11/14 12:43:58;;;;;;;12.05;1.67;;;10.90;100.00;;;;;;4964983;28;20042;-81